createdAt,value
2018-07-17T00:01:18.913Z,19.80
2018-07-17T00:03:23.378Z,19.70
2018-07-17T00:05:28.598Z,19.70
2018-07-17T00:07:33.010Z,19.70
2018-07-17T00:09:37.527Z,19.60
2018-07-17T00:11:42.008Z,19.60
2018-07-17T00:13:46.495Z,19.50
2018-07-17T00:15:50.930Z,19.50
2018-07-17T00:17:55.378Z,19.50
2018-07-17T00:19:59.806Z,19.40
2018-07-17T00:22:04.290Z,19.40
2018-07-17T00:24:08.737Z,19.40
2018-07-17T00:28:17.325Z,19.30
2018-07-17T00:30:21.836Z,19.30
2018-07-17T00:32:26.425Z,19.20
2018-07-17T00:34:31.738Z,19.20
2018-07-17T00:36:36.181Z,19.10
2018-07-17T00:38:40.650Z,19.10
2018-07-17T00:40:45.141Z,19.10
2018-07-17T00:42:49.554Z,19.00
2018-07-17T00:44:54.047Z,19.00
2018-07-17T00:46:58.619Z,19.00
2018-07-17T00:49:03.052Z,18.90
2018-07-17T00:51:07.463Z,18.90
2018-07-17T00:55:16.805Z,18.90
2018-07-17T00:57:21.229Z,18.80
2018-07-17T00:59:25.680Z,18.80
2018-07-17T01:01:36.410Z,18.70
2018-07-17T01:03:47.171Z,18.70
2018-07-17T01:05:58.694Z,18.70
2018-07-17T01:08:11.328Z,18.60
2018-07-17T01:10:24.566Z,18.60
2018-07-17T01:12:31.158Z,18.50
2018-07-17T01:15:39.938Z,18.50
2018-07-17T01:17:47.643Z,18.50
2018-07-17T01:19:53.438Z,18.40
2018-07-17T01:22:02.247Z,18.30
2018-07-17T01:24:08.943Z,18.30
2018-07-17T01:26:15.406Z,18.30
2018-07-17T01:28:21.846Z,18.20
2018-07-17T01:30:28.906Z,18.20
2018-07-17T01:32:34.350Z,18.20
2018-07-17T01:34:42.327Z,18.20
2018-07-17T01:36:46.853Z,18.10
2018-07-17T01:38:53.356Z,18.10
2018-07-17T01:41:03.202Z,18.10
2018-07-17T01:43:10.610Z,18.10
2018-07-17T01:45:18.560Z,18.00
2018-07-17T01:47:24.272Z,18.00
2018-07-17T01:49:32.734Z,17.90
2018-07-17T01:51:40.086Z,17.90
2018-07-17T01:53:47.602Z,17.90
2018-07-17T01:55:53.882Z,17.90
2018-07-17T01:58:01.210Z,17.80
2018-07-17T02:00:10.579Z,17.90
2018-07-17T02:02:15.016Z,17.80
2018-07-17T02:04:19.474Z,17.80
2018-07-17T02:06:24.984Z,17.80
2018-07-17T02:08:31.332Z,17.70
2018-07-17T02:10:36.597Z,17.70
2018-07-17T02:12:45.287Z,17.70
2018-07-17T02:14:52.050Z,17.60
2018-07-17T02:16:59.898Z,17.60
2018-07-17T02:19:08.071Z,17.60
2018-07-17T02:21:15.711Z,17.60
2018-07-17T02:23:23.914Z,17.50
2018-07-17T02:25:28.478Z,17.50
2018-07-17T02:29:37.981Z,17.40
2018-07-17T02:31:42.432Z,17.40
2018-07-17T02:33:46.867Z,17.40
2018-07-17T02:35:51.345Z,17.40
2018-07-17T02:37:55.824Z,17.30
2018-07-17T02:40:00.313Z,17.30
2018-07-17T02:42:04.822Z,17.30
2018-07-17T02:44:09.287Z,17.30
2018-07-17T02:48:18.374Z,17.20
2018-07-17T02:50:22.838Z,17.20
2018-07-17T02:52:27.338Z,17.20
2018-07-17T02:56:36.041Z,17.20
2018-07-17T02:58:40.475Z,17.10
2018-07-17T03:00:44.911Z,17.10
2018-07-17T03:02:49.352Z,17.10
2018-07-17T03:04:54.538Z,17.10
2018-07-17T03:06:59.086Z,17.10
2018-07-17T03:09:03.609Z,17.10
2018-07-17T03:11:08.650Z,17.10
2018-07-17T03:13:13.090Z,17.00
2018-07-17T03:15:17.531Z,17.00
2018-07-17T03:17:22.002Z,17.00
2018-07-17T03:19:27.211Z,16.90
2018-07-17T03:21:31.690Z,17.00
2018-07-17T03:23:36.082Z,17.00
2018-07-17T03:25:40.631Z,16.90
2018-07-17T03:27:45.116Z,17.00
2018-07-17T03:31:54.698Z,16.90
2018-07-17T03:33:59.106Z,16.90
2018-07-17T03:36:03.583Z,16.80
2018-07-17T03:38:08.171Z,16.80
2018-07-17T03:40:12.693Z,16.80
2018-07-17T03:42:17.123Z,16.80
2018-07-17T03:44:22.062Z,16.80
2018-07-17T03:46:26.482Z,16.80
2018-07-17T03:48:30.959Z,16.80
2018-07-17T03:50:35.442Z,16.80
2018-07-17T03:52:39.870Z,16.80
2018-07-17T03:54:44.404Z,16.80
2018-07-17T03:56:48.860Z,16.70
2018-07-17T03:58:53.342Z,16.70
2018-07-17T04:00:59.803Z,16.70
2018-07-17T04:03:04.243Z,16.70
2018-07-17T04:05:12.332Z,16.70
2018-07-17T04:07:16.886Z,16.70
2018-07-17T04:09:24.918Z,16.70
2018-07-17T04:13:39.102Z,16.60
2018-07-17T04:15:46.488Z,16.60
2018-07-17T04:17:54.707Z,16.60
2018-07-17T04:20:01.942Z,16.60
2018-07-17T04:22:06.712Z,16.60
2018-07-17T04:24:11.238Z,16.60
2018-07-17T04:26:15.739Z,16.60
2018-07-17T04:28:20.226Z,16.60
2018-07-17T04:30:24.706Z,16.50
2018-07-17T04:32:29.155Z,16.60
2018-07-17T04:34:33.688Z,16.50
2018-07-17T04:36:38.270Z,16.50
2018-07-17T04:38:42.673Z,16.60
2018-07-17T04:40:47.135Z,16.60
2018-07-17T04:44:56.342Z,16.50
2018-07-17T04:47:00.802Z,16.60
2018-07-17T04:49:05.789Z,16.60
2018-07-17T04:51:10.255Z,16.60
2018-07-17T04:53:14.776Z,16.60
2018-07-17T04:55:19.208Z,16.60
2018-07-17T04:57:23.697Z,16.70
2018-07-17T04:59:28.138Z,16.70
2018-07-17T05:01:32.640Z,16.70
2018-07-17T05:03:37.125Z,16.70
2018-07-17T05:05:42.317Z,16.80
2018-07-17T05:16:04.469Z,16.90
2018-07-17T05:18:08.934Z,17.00
2018-07-17T05:22:17.531Z,17.00
2018-07-17T05:24:21.965Z,17.10
2018-07-17T05:26:26.427Z,17.20
2018-07-17T05:28:31.803Z,17.20
2018-07-17T05:30:36.599Z,17.30
2018-07-17T05:32:43.019Z,17.30
2018-07-17T05:34:47.462Z,17.40
2018-07-17T05:36:51.926Z,17.50
2018-07-17T05:38:56.838Z,17.60
2018-07-17T05:41:01.308Z,17.70
2018-07-17T05:43:05.954Z,17.70
2018-07-17T05:45:10.407Z,17.80
2018-07-17T05:47:14.950Z,17.90
2018-07-17T05:49:19.351Z,18.00
2018-07-17T05:51:23.778Z,18.10
2018-07-17T05:53:28.266Z,18.20
2018-07-17T05:55:32.702Z,18.40
2018-07-17T05:57:37.162Z,18.40
2018-07-17T05:59:41.614Z,18.50
2018-07-17T06:01:46.341Z,18.60
2018-07-17T06:03:50.754Z,18.60
2018-07-17T06:07:59.439Z,18.80
2018-07-17T06:10:03.952Z,18.90
2018-07-17T06:12:08.423Z,18.90
2018-07-17T06:14:12.898Z,19.00
2018-07-17T06:16:17.430Z,19.10
2018-07-17T06:18:21.936Z,19.20
2018-07-17T06:20:26.390Z,19.20
2018-07-17T06:22:30.893Z,19.30
2018-07-17T06:24:35.368Z,19.40
2018-07-17T06:26:39.882Z,19.50
2018-07-17T06:28:44.386Z,19.50
2018-07-17T06:30:48.859Z,19.60
2018-07-17T06:32:53.356Z,19.70
2018-07-17T06:34:58.331Z,19.80
2018-07-17T06:37:02.747Z,19.90
2018-07-17T06:39:08.667Z,20.00
2018-07-17T06:41:13.216Z,20.10
2018-07-17T06:45:22.916Z,20.40
2018-07-17T06:47:27.440Z,20.50
2018-07-17T06:49:31.879Z,20.60
2018-07-17T06:51:36.346Z,20.70
2018-07-17T06:53:40.817Z,20.80
2018-07-17T06:59:53.537Z,21.20
2018-07-17T07:01:57.981Z,21.40
2018-07-17T07:04:02.422Z,21.50
2018-07-17T07:06:06.935Z,21.60
2018-07-17T07:08:11.358Z,21.70
2018-07-17T07:10:15.780Z,21.80
2018-07-17T07:12:20.211Z,22.00
2018-07-17T07:14:24.682Z,22.10
2018-07-17T07:16:29.118Z,22.20
2018-07-17T07:18:33.675Z,22.40
2018-07-17T07:20:38.507Z,22.50
2018-07-17T07:22:43.248Z,22.60
2018-07-17T07:24:47.714Z,22.80
2018-07-17T07:26:52.212Z,22.90
2018-07-17T07:28:56.680Z,23.00
2018-07-17T07:31:01.155Z,23.20
2018-07-17T07:33:05.958Z,23.40
2018-07-17T07:35:10.436Z,23.50
2018-07-17T07:37:14.923Z,23.60
2018-07-17T07:39:19.443Z,23.80
2018-07-17T07:41:23.841Z,23.90
2018-07-17T07:43:28.718Z,24.10
2018-07-17T07:45:33.221Z,24.20
2018-07-17T07:47:38.624Z,24.30
2018-07-17T07:49:43.066Z,24.50
2018-07-17T07:51:47.739Z,24.60
2018-07-17T07:53:52.359Z,24.80
2018-07-17T07:55:56.803Z,24.90
2018-07-17T07:58:01.214Z,25.10
2018-07-17T08:00:05.799Z,25.20
2018-07-17T08:02:10.238Z,25.30
2018-07-17T08:04:14.727Z,25.50
2018-07-17T08:06:19.271Z,25.70
2018-07-17T08:08:23.662Z,25.80
2018-07-17T08:10:28.158Z,25.90
2018-07-17T08:12:32.604Z,26.10
2018-07-17T08:16:41.623Z,26.40
2018-07-17T08:18:46.081Z,26.60
2018-07-17T08:20:50.553Z,26.70
2018-07-17T08:22:55.004Z,26.80
2018-07-17T08:24:59.476Z,27.00
2018-07-17T08:27:04.022Z,27.10
2018-07-17T08:29:08.519Z,27.30
2018-07-17T08:31:13.014Z,27.40
2018-07-17T08:33:17.479Z,27.50
2018-07-17T08:35:22.219Z,27.60
2018-07-17T08:37:26.687Z,27.70
2018-07-17T08:39:34.720Z,27.80
2018-07-17T08:41:42.631Z,27.90
2018-07-17T08:43:55.856Z,28.10
2018-07-17T08:46:03.508Z,28.10
2018-07-17T08:48:10.256Z,28.20
2018-07-17T08:50:14.743Z,28.30
2018-07-17T08:56:27.975Z,28.40
2018-07-17T08:58:32.386Z,28.50
2018-07-17T09:00:36.855Z,28.60
2018-07-17T09:04:45.414Z,28.70
2018-07-17T09:06:49.915Z,28.70
2018-07-17T09:08:54.422Z,28.80
2018-07-17T09:11:00.072Z,28.90
2018-07-17T09:13:04.617Z,29.00
2018-07-17T09:15:09.117Z,29.10
2018-07-17T09:17:13.975Z,29.20
2018-07-17T09:19:18.439Z,29.20
2018-07-17T09:21:23.027Z,29.30
2018-07-17T09:23:27.510Z,29.30
2018-07-17T09:25:32.001Z,29.40
2018-07-17T09:27:36.478Z,29.40
2018-07-17T09:29:40.930Z,29.50
2018-07-17T09:33:49.463Z,29.60
2018-07-17T09:35:53.954Z,29.60
2018-07-17T09:37:58.442Z,29.60
2018-07-17T09:40:03.030Z,29.70
2018-07-17T09:42:07.758Z,29.70
2018-07-17T09:46:17.139Z,29.80
2018-07-17T09:48:21.598Z,29.80
2018-07-17T09:50:26.049Z,29.80
2018-07-17T09:52:31.178Z,29.90
2018-07-17T09:54:35.607Z,30.00
2018-07-17T09:56:40.454Z,30.00
2018-07-17T09:58:44.870Z,30.10
2018-07-17T10:00:54.554Z,30.20
2018-07-17T10:02:59.058Z,30.30
2018-07-17T10:05:03.655Z,30.40
2018-07-17T10:07:13.123Z,30.40
2018-07-17T10:09:18.006Z,30.50
2018-07-17T10:11:22.437Z,30.60
2018-07-17T10:13:26.879Z,30.70
2018-07-17T10:15:31.339Z,30.80
2018-07-17T10:17:35.981Z,30.90
2018-07-17T10:19:40.924Z,31.00
2018-07-17T10:21:45.449Z,31.10
2018-07-17T10:23:49.911Z,31.10
2018-07-17T10:27:58.489Z,31.20
2018-07-17T10:30:02.916Z,31.20
2018-07-17T10:32:08.512Z,31.30
2018-07-17T10:34:13.012Z,31.30
2018-07-17T10:36:17.551Z,31.40
2018-07-17T10:38:21.960Z,31.40
2018-07-17T10:40:26.438Z,31.40
2018-07-17T10:42:30.936Z,31.50
2018-07-17T10:44:35.358Z,31.50
2018-07-17T10:46:40.949Z,31.60
2018-07-17T10:48:45.405Z,31.60
2018-07-17T10:50:49.917Z,31.70
2018-07-17T10:52:54.333Z,31.80
2018-07-17T10:54:58.772Z,31.80
2018-07-17T10:57:04.072Z,31.90
2018-07-17T10:59:08.509Z,32.00
2018-07-17T11:01:12.942Z,32.00
2018-07-17T11:03:17.426Z,32.10
2018-07-17T11:05:21.944Z,32.10
2018-07-17T11:07:26.420Z,32.10
2018-07-17T11:09:30.911Z,32.20
2018-07-17T11:13:41.019Z,32.30
2018-07-17T11:15:45.434Z,32.30
2018-07-17T11:17:49.877Z,32.40
2018-07-17T11:19:54.481Z,32.50
2018-07-17T11:21:59.022Z,32.50
2018-07-17T11:24:03.437Z,32.60
2018-07-17T11:26:08.050Z,32.60
2018-07-17T11:28:12.507Z,32.70
2018-07-17T11:30:17.143Z,32.70
2018-07-17T11:32:21.700Z,32.80
2018-07-17T11:34:26.204Z,32.80
2018-07-17T11:36:30.682Z,32.90
2018-07-17T11:38:35.235Z,33.00
2018-07-17T11:40:39.668Z,33.00
2018-07-17T11:42:44.110Z,33.10
2018-07-17T11:44:48.563Z,33.10
2018-07-17T11:46:53.047Z,33.10
2018-07-17T11:48:57.446Z,33.20
2018-07-17T11:51:01.928Z,33.20
2018-07-17T11:53:06.551Z,33.20
2018-07-17T11:55:10.945Z,33.30
2018-07-17T11:57:15.494Z,33.30
2018-07-17T12:01:24.077Z,33.50
2018-07-17T12:03:28.540Z,33.60
2018-07-17T12:05:33.204Z,33.60
2018-07-17T12:07:37.753Z,33.70
2018-07-17T12:09:47.011Z,33.70
2018-07-17T12:11:56.638Z,33.80
2018-07-17T12:16:14.335Z,34.00
2018-07-17T12:18:20.309Z,34.10
2018-07-17T12:20:24.830Z,34.10
2018-07-17T12:22:34.508Z,34.20
2018-07-17T12:26:52.671Z,34.40
2018-07-17T12:29:02.776Z,34.40
2018-07-17T12:31:11.388Z,34.50
2018-07-17T12:33:20.503Z,34.60
2018-07-17T12:35:28.316Z,34.70
2018-07-17T12:37:38.561Z,34.70
2018-07-17T12:39:46.047Z,34.90
2018-07-17T12:41:53.747Z,34.90
2018-07-17T12:44:01.495Z,35.00
2018-07-17T12:46:09.062Z,35.00
2018-07-17T12:48:18.385Z,35.10
2018-07-17T12:52:41.770Z,35.20
2018-07-17T12:54:46.254Z,35.20
2018-07-17T12:56:50.890Z,35.20
2018-07-17T12:58:57.634Z,35.30
2018-07-17T13:05:17.946Z,35.30
2018-07-17T13:07:25.094Z,35.30
2018-07-17T13:09:34.748Z,35.30
2018-07-17T13:13:46.315Z,35.40
2018-07-17T13:15:55.622Z,35.50
2018-07-17T13:18:03.276Z,35.50
2018-07-17T13:20:11.336Z,35.50
2018-07-17T13:24:29.078Z,35.60
2018-07-17T13:26:38.684Z,35.60
2018-07-17T13:28:44.781Z,35.60
2018-07-17T13:30:49.326Z,35.60
2018-07-17T13:32:54.148Z,35.60
2018-07-17T13:35:01.966Z,35.60
2018-07-17T13:37:12.017Z,35.60
2018-07-17T13:39:20.742Z,35.70
2018-07-17T13:41:29.417Z,35.70
2018-07-17T13:43:37.211Z,35.80
2018-07-17T13:45:46.542Z,35.80
2018-07-17T13:47:55.360Z,35.80
2018-07-17T13:50:03.478Z,35.80
2018-07-17T13:52:09.111Z,35.80
2018-07-17T13:54:15.878Z,35.90
2018-07-17T13:56:23.885Z,35.90
2018-07-17T13:58:36.114Z,35.90
2018-07-17T14:00:46.110Z,35.80
2018-07-17T14:02:54.134Z,35.80
2018-07-17T14:04:59.715Z,35.90
2018-07-17T14:07:04.429Z,35.90
2018-07-17T14:09:11.223Z,35.80
2018-07-17T14:11:16.673Z,35.80
2018-07-17T14:13:21.258Z,35.70
2018-07-17T14:15:25.807Z,35.70
2018-07-17T14:17:31.420Z,35.70
2018-07-17T14:21:40.385Z,35.70
2018-07-17T14:23:44.953Z,35.70
2018-07-17T14:25:49.436Z,35.70
2018-07-17T14:27:53.968Z,35.70
2018-07-17T14:29:58.616Z,35.70
2018-07-17T14:32:04.207Z,35.80
2018-07-17T14:34:09.127Z,35.80
2018-07-17T14:36:13.834Z,35.90
2018-07-17T14:38:18.380Z,35.90
2018-07-17T14:40:23.137Z,35.90
2018-07-17T14:42:27.798Z,35.80
2018-07-17T14:44:32.395Z,35.80
2018-07-17T14:46:36.863Z,35.80
2018-07-17T14:48:41.405Z,35.70
2018-07-17T14:50:45.930Z,35.60
2018-07-17T14:52:50.392Z,35.60
2018-07-17T14:54:55.336Z,35.60
2018-07-17T14:56:59.826Z,35.50
2018-07-17T14:59:04.608Z,35.40
2018-07-17T15:01:14.121Z,35.30
2018-07-17T15:03:20.099Z,35.30
2018-07-17T15:05:29.674Z,35.30
2018-07-17T15:07:37.190Z,35.20
2018-07-17T15:09:45.631Z,35.20
2018-07-17T15:11:50.044Z,35.10
2018-07-17T15:13:54.693Z,35.10
2018-07-17T15:15:59.273Z,35.20
2018-07-17T15:18:03.936Z,35.20
2018-07-17T15:20:09.231Z,35.30
2018-07-17T15:22:13.916Z,35.30
2018-07-17T15:24:18.587Z,35.30
2018-07-17T15:26:23.559Z,35.30
2018-07-17T15:28:28.125Z,35.30
2018-07-17T15:32:37.597Z,35.30
2018-07-17T15:34:42.171Z,35.20
2018-07-17T15:39:02.688Z,35.10
2018-07-17T15:41:07.584Z,34.90
2018-07-17T15:43:12.026Z,34.90
2018-07-17T15:45:16.763Z,34.80
2018-07-17T15:47:21.361Z,34.70
2018-07-17T15:49:27.247Z,34.60
2018-07-17T15:51:31.975Z,34.60
2018-07-17T15:53:40.105Z,34.60
2018-07-17T15:55:44.698Z,34.50
2018-07-17T15:57:49.899Z,34.50
2018-07-17T15:59:54.796Z,34.40
2018-07-17T16:01:59.287Z,34.40
2018-07-17T16:04:03.741Z,34.40
2018-07-17T16:06:08.646Z,34.30
2018-07-17T16:10:17.792Z,34.30
2018-07-17T16:12:22.247Z,34.30
2018-07-17T16:14:27.528Z,34.20
2018-07-17T16:16:31.816Z,34.20
2018-07-17T16:18:36.422Z,34.10
2018-07-17T16:20:41.083Z,34.10
2018-07-17T16:22:45.691Z,34.00
2018-07-17T16:24:50.442Z,33.90
2018-07-17T16:26:55.119Z,33.90
2018-07-17T16:28:59.589Z,33.80
2018-07-17T16:31:04.381Z,33.80
2018-07-17T16:33:08.919Z,33.70
2018-07-17T16:35:13.484Z,33.60
2018-07-17T16:37:18.239Z,33.50
2018-07-17T16:39:23.332Z,33.40
2018-07-17T16:41:27.833Z,33.40
2018-07-17T16:43:32.518Z,33.30
2018-07-17T16:45:37.431Z,33.20
2018-07-17T16:47:42.696Z,33.20
2018-07-17T16:51:52.169Z,33.00
2018-07-17T16:53:57.254Z,33.00
2018-07-17T16:56:01.741Z,32.90
2018-07-17T16:58:07.672Z,32.90
2018-07-17T17:00:12.219Z,32.80
2018-07-17T17:02:16.953Z,32.80
2018-07-17T17:04:21.756Z,32.80
2018-07-17T17:08:32.668Z,32.70
2018-07-17T17:10:37.412Z,32.60
2018-07-17T17:12:42.343Z,32.60
2018-07-17T17:14:47.617Z,32.50
2018-07-17T17:16:52.350Z,32.40
2018-07-17T17:18:57.258Z,32.40
2018-07-17T17:21:03.036Z,32.30
2018-07-17T17:23:07.995Z,32.30
2018-07-17T17:25:12.595Z,32.30
2018-07-17T17:27:17.134Z,32.20
2018-07-17T17:29:22.068Z,32.20
2018-07-17T17:31:27.968Z,32.10
2018-07-17T17:35:36.715Z,32.00
2018-07-17T17:37:43.309Z,31.90
2018-07-17T17:39:49.711Z,31.90
2018-07-17T17:41:55.897Z,31.90
2018-07-17T17:46:05.707Z,31.80
2018-07-17T17:48:11.267Z,31.80
2018-07-17T17:50:15.987Z,31.70
2018-07-17T17:52:22.941Z,31.70
2018-07-17T17:54:28.863Z,31.60
2018-07-17T17:56:35.078Z,31.60
2018-07-17T17:58:41.282Z,31.50
2018-07-17T18:00:46.332Z,31.50
2018-07-17T18:02:53.078Z,31.50
2018-07-17T18:04:58.558Z,31.50
2018-07-17T18:07:04.356Z,31.40
2018-07-17T18:11:13.992Z,31.30
2018-07-17T18:13:18.409Z,31.30
2018-07-17T18:15:23.051Z,31.20
2018-07-17T18:17:28.284Z,31.20
2018-07-17T18:19:37.598Z,31.20
2018-07-17T18:21:42.689Z,31.10
2018-07-17T18:23:48.056Z,31.00
2018-07-17T18:28:04.599Z,30.90
2018-07-17T18:30:11.122Z,30.90
2018-07-17T18:32:16.010Z,30.90
2018-07-17T18:34:20.821Z,30.80
2018-07-17T18:36:25.434Z,30.80
2018-07-17T18:38:30.000Z,30.80
2018-07-17T18:40:34.441Z,30.70
2018-07-17T18:42:38.900Z,30.70
2018-07-17T18:44:43.339Z,30.60
2018-07-17T18:46:48.409Z,30.60
2018-07-17T18:48:52.951Z,30.50
2018-07-17T18:50:57.946Z,30.50
2018-07-17T18:53:02.869Z,30.50
2018-07-17T18:57:12.895Z,30.40
2018-07-17T18:59:18.011Z,30.30
2018-07-17T19:01:22.601Z,30.30
2018-07-17T19:03:28.342Z,30.20
2018-07-17T19:07:37.605Z,30.10
2018-07-17T19:09:42.149Z,30.00
2018-07-17T19:13:52.195Z,29.90
2018-07-17T19:15:57.154Z,29.80
2018-07-17T19:18:01.867Z,29.80
2018-07-17T19:20:08.256Z,29.70
2018-07-17T19:22:13.338Z,29.60
2018-07-17T19:24:19.107Z,29.50
2018-07-17T19:26:25.397Z,29.40
2018-07-17T19:28:30.543Z,29.30
2018-07-17T19:30:36.535Z,29.30
2018-07-17T19:32:41.421Z,29.20
2018-07-17T19:34:46.576Z,29.10
2018-07-17T19:36:51.430Z,29.10
2018-07-17T19:38:56.936Z,29.00
2018-07-17T19:41:02.354Z,28.90
2018-07-17T19:43:07.735Z,28.90
2018-07-17T19:45:12.597Z,28.90
2018-07-17T19:47:18.382Z,28.80
2018-07-17T19:49:24.914Z,28.70
2018-07-17T19:51:30.238Z,28.70
2018-07-17T19:53:35.098Z,28.70
2018-07-17T19:55:39.583Z,28.70
2018-07-17T19:57:44.379Z,28.60
2018-07-17T19:59:49.005Z,28.50
2018-07-17T20:01:53.836Z,28.50
2018-07-17T20:03:58.776Z,28.50
2018-07-17T20:06:03.639Z,28.40
2018-07-17T20:08:09.075Z,28.40
2018-07-17T20:10:18.094Z,28.30
2018-07-17T20:12:26.910Z,28.30
2018-07-17T20:14:36.163Z,28.30
2018-07-17T20:16:44.143Z,28.20
2018-07-17T20:18:49.432Z,28.20
2018-07-17T20:20:53.896Z,28.10
2018-07-17T20:22:58.475Z,28.10
2018-07-17T20:27:07.263Z,27.90
2018-07-17T20:29:11.716Z,27.80
2018-07-17T20:31:16.478Z,27.70
2018-07-17T20:33:20.970Z,27.60
2018-07-17T20:35:25.385Z,27.60
2018-07-17T20:37:29.822Z,27.50
2018-07-17T20:39:34.348Z,27.30
2018-07-17T20:41:39.306Z,27.20
2018-07-17T20:43:43.835Z,27.10
2018-07-17T20:45:49.422Z,27.10
2018-07-17T20:47:53.876Z,27.00
2018-07-17T20:49:58.328Z,27.00
2018-07-17T20:52:03.838Z,26.80
2018-07-17T20:54:09.464Z,26.80
2018-07-17T20:56:14.072Z,26.70
2018-07-17T20:58:18.784Z,26.70
2018-07-17T21:00:25.119Z,26.60
2018-07-17T21:02:29.637Z,26.50
2018-07-17T21:10:47.631Z,26.20
2018-07-17T21:12:52.084Z,26.20
2018-07-17T21:14:56.563Z,26.10
2018-07-17T21:17:01.023Z,26.00
2018-07-17T21:19:05.766Z,26.00
2018-07-17T21:21:10.226Z,25.90
2018-07-17T21:23:14.675Z,25.90
2018-07-17T21:25:19.407Z,25.80
2018-07-17T21:27:24.587Z,25.80
2018-07-17T21:29:30.386Z,25.70
2018-07-17T21:31:35.068Z,25.70
2018-07-17T21:33:41.178Z,25.60
2018-07-17T21:35:48.845Z,25.50
2018-07-17T21:37:53.564Z,25.50
2018-07-17T21:39:58.152Z,25.40
2018-07-17T21:42:02.620Z,25.30
2018-07-17T21:44:07.139Z,25.20
2018-07-17T21:46:11.564Z,25.20
2018-07-17T21:48:16.002Z,25.10
2018-07-17T21:50:20.539Z,25.00
2018-07-17T21:52:24.936Z,24.90
2018-07-17T21:54:30.626Z,24.90
2018-07-17T21:56:35.139Z,24.80
2018-07-17T21:58:39.702Z,24.70
2018-07-17T22:00:44.228Z,24.70
2018-07-17T22:02:48.771Z,24.60
2018-07-17T22:04:53.945Z,24.60
2018-07-17T22:06:59.784Z,24.50
2018-07-17T22:09:05.992Z,24.40
2018-07-17T22:11:11.657Z,24.40
2018-07-17T22:13:16.083Z,24.30
2018-07-17T22:15:20.583Z,24.20
2018-07-17T22:17:24.976Z,24.20
2018-07-17T22:19:29.407Z,24.10
2018-07-17T22:21:35.028Z,24.00
2018-07-17T22:25:46.150Z,23.90
2018-07-17T22:27:51.669Z,23.80
2018-07-17T22:29:56.172Z,23.70
2018-07-17T22:34:05.061Z,23.50
2018-07-17T22:36:09.532Z,23.40
2018-07-17T22:38:14.112Z,23.30
2018-07-17T22:42:22.667Z,23.20
2018-07-17T22:44:27.113Z,23.10
2018-07-17T22:46:31.722Z,23.10
2018-07-17T22:48:36.259Z,23.00
2018-07-17T22:50:40.745Z,22.90
2018-07-17T22:54:51.474Z,22.90
2018-07-17T22:56:55.887Z,22.80
2018-07-17T22:59:00.331Z,22.70
2018-07-17T23:01:04.771Z,22.70
2018-07-17T23:03:09.295Z,22.60
2018-07-17T23:05:13.974Z,22.60
2018-07-17T23:07:18.412Z,22.60
2018-07-17T23:09:22.886Z,22.60
2018-07-17T23:11:27.314Z,22.50
2018-07-17T23:13:31.876Z,22.40
2018-07-17T23:15:36.319Z,22.40
2018-07-17T23:19:37.931Z,22.30
2018-07-17T23:21:42.334Z,22.20
2018-07-17T23:23:46.734Z,22.20
2018-07-17T23:25:52.003Z,22.10
2018-07-17T23:27:57.115Z,22.10
2018-07-17T23:30:01.566Z,22.10
2018-07-17T23:32:07.704Z,22.00
2018-07-17T23:34:13.189Z,22.00
2018-07-17T23:36:17.650Z,21.90
2018-07-17T23:40:26.210Z,21.80
2018-07-17T23:42:30.635Z,21.80
2018-07-17T23:44:35.079Z,21.70
2018-07-17T23:48:43.605Z,21.70
2018-07-17T23:50:48.051Z,21.60
2018-07-17T23:52:52.455Z,21.60
2018-07-17T23:54:56.883Z,21.50
2018-07-17T23:57:01.339Z,21.40
2018-07-17T23:59:05.795Z,21.40
